sensor_id;sensor_type;location;lat;lon;timestamp;temperature;humidity
37242;DHT22;23135;51.078;12.108;2023-06-26T00:00:02;18.00;99.90
37242;DHT22;23135;51.078;12.108;2023-06-26T00:02:30;17.90;99.90
37242;DHT22;23135;51.078;12.108;2023-06-26T00:04:58;17.90;99.90
37242;DHT22;23135;51.078;12.108;2023-06-26T00:07:23;17.90;99.90
37242;DHT22;23135;51.078;12.108;2023-06-26T00:09:49;17.90;99.90
37242;DHT22;23135;51.078;12.108;2023-06-26T00:12:14;17.90;99.90
37242;DHT22;23135;51.078;12.108;2023-06-26T00:14:40;17.90;99.90
37242;DHT22;23135;51.078;12.108;2023-06-26T00:17:05;17.90;99.90
37242;DHT22;23135;51.078;12.108;2023-06-26T00:19:31;17.80;99.90
37242;DHT22;23135;51.078;12.108;2023-06-26T00:21:56;17.80;99.90
37242;DHT22;23135;51.078;12.108;2023-06-26T00:24:22;17.70;99.90
37242;DHT22;23135;51.078;12.108;2023-06-26T00:26:48;17.70;99.90
37242;DHT22;23135;51.078;12.108;2023-06-26T00:29:14;17.70;99.90
37242;DHT22;23135;51.078;12.108;2023-06-26T00:31:39;17.70;99.90
37242;DHT22;23135;51.078;12.108;2023-06-26T00:34:05;17.70;99.90
37242;DHT22;23135;51.078;12.108;2023-06-26T00:36:31;17.60;99.90
37242;DHT22;23135;51.078;12.108;2023-06-26T00:38:56;17.70;99.90
37242;DHT22;23135;51.078;12.108;2023-06-26T00:41:22;17.60;99.90
37242;DHT22;23135;51.078;12.108;2023-06-26T00:43:48;17.60;99.90
37242;DHT22;23135;51.078;12.108;2023-06-26T00:46:14;17.60;99.90
37242;DHT22;23135;51.078;12.108;2023-06-26T00:48:42;17.50;99.90
37242;DHT22;23135;51.078;12.108;2023-06-26T00:51:09;17.60;99.90
37242;DHT22;23135;51.078;12.108;2023-06-26T00:53:35;17.60;99.90
37242;DHT22;23135;51.078;12.108;2023-06-26T00:56:01;17.60;99.90
37242;DHT22;23135;51.078;12.108;2023-06-26T00:58:27;17.60;99.90
37242;DHT22;23135;51.078;12.108;2023-06-26T01:00:53;17.50;99.90
37242;DHT22;23135;51.078;12.108;2023-06-26T01:03:22;17.40;99.90
37242;DHT22;23135;51.078;12.108;2023-06-26T01:05:49;17.40;99.90
37242;DHT22;23135;51.078;12.108;2023-06-26T01:08:16;17.40;99.90
37242;DHT22;23135;51.078;12.108;2023-06-26T01:10:42;17.40;99.90
37242;DHT22;23135;51.078;12.108;2023-06-26T01:13:08;17.30;99.90
37242;DHT22;23135;51.078;12.108;2023-06-26T01:15:34;17.30;99.90
37242;DHT22;23135;51.078;12.108;2023-06-26T01:18:00;17.30;99.90
37242;DHT22;23135;51.078;12.108;2023-06-26T01:20:37;17.40;99.90
37242;DHT22;23135;51.078;12.108;2023-06-26T01:28:25;17.40;99.90
37242;DHT22;23135;51.078;12.108;2023-06-26T01:30:51;17.40;99.90
37242;DHT22;23135;51.078;12.108;2023-06-26T01:33:17;17.40;99.90
37242;DHT22;23135;51.078;12.108;2023-06-26T01:35:44;17.40;99.90
37242;DHT22;23135;51.078;12.108;2023-06-26T01:38:18;17.20;99.90
37242;DHT22;23135;51.078;12.108;2023-06-26T01:40:44;17.20;99.90
37242;DHT22;23135;51.078;12.108;2023-06-26T01:45:41;17.10;99.90
37242;DHT22;23135;51.078;12.108;2023-06-26T01:48:10;17.00;99.90
37242;DHT22;23135;51.078;12.108;2023-06-26T01:50:37;17.00;99.90
37242;DHT22;23135;51.078;12.108;2023-06-26T01:53:10;16.90;99.90
37242;DHT22;23135;51.078;12.108;2023-06-26T01:55:47;16.80;99.90
37242;DHT22;23135;51.078;12.108;2023-06-26T01:58:17;16.80;99.90
37242;DHT22;23135;51.078;12.108;2023-06-26T02:00:44;16.70;99.90
37242;DHT22;23135;51.078;12.108;2023-06-26T02:03:10;16.70;99.90
37242;DHT22;23135;51.078;12.108;2023-06-26T02:05:35;16.60;99.90
37242;DHT22;23135;51.078;12.108;2023-06-26T02:08:01;16.50;99.90
37242;DHT22;23135;51.078;12.108;2023-06-26T02:10:28;16.50;99.90
37242;DHT22;23135;51.078;12.108;2023-06-26T02:12:53;16.50;99.90
37242;DHT22;23135;51.078;12.108;2023-06-26T02:15:19;16.60;99.90
37242;DHT22;23135;51.078;12.108;2023-06-26T02:17:44;16.60;99.90
37242;DHT22;23135;51.078;12.108;2023-06-26T02:20:14;16.50;99.90
37242;DHT22;23135;51.078;12.108;2023-06-26T02:22:40;16.50;99.90
37242;DHT22;23135;51.078;12.108;2023-06-26T02:25:06;16.40;99.90
37242;DHT22;23135;51.078;12.108;2023-06-26T02:27:32;16.40;99.90
37242;DHT22;23135;51.078;12.108;2023-06-26T02:29:57;16.40;99.90
37242;DHT22;23135;51.078;12.108;2023-06-26T02:32:23;16.40;99.90
37242;DHT22;23135;51.078;12.108;2023-06-26T02:34:48;16.30;99.90
37242;DHT22;23135;51.078;12.108;2023-06-26T02:37:17;16.30;99.90
37242;DHT22;23135;51.078;12.108;2023-06-26T02:39:43;16.30;99.90
37242;DHT22;23135;51.078;12.108;2023-06-26T02:42:08;16.30;99.90
37242;DHT22;23135;51.078;12.108;2023-06-26T02:44:34;16.20;99.90
37242;DHT22;23135;51.078;12.108;2023-06-26T02:47:00;16.10;99.90
37242;DHT22;23135;51.078;12.108;2023-06-26T02:49:26;16.10;99.90
37242;DHT22;23135;51.078;12.108;2023-06-26T02:51:51;16.00;99.90
37242;DHT22;23135;51.078;12.108;2023-06-26T02:54:17;16.00;99.90
37242;DHT22;23135;51.078;12.108;2023-06-26T02:56:43;16.00;99.90
37242;DHT22;23135;51.078;12.108;2023-06-26T02:59:08;15.90;99.90
37242;DHT22;23135;51.078;12.108;2023-06-26T03:01:34;15.90;99.90
37242;DHT22;23135;51.078;12.108;2023-06-26T03:04:00;15.90;99.90
37242;DHT22;23135;51.078;12.108;2023-06-26T03:06:26;15.90;99.90
37242;DHT22;23135;51.078;12.108;2023-06-26T03:08:53;15.90;99.90
37242;DHT22;23135;51.078;12.108;2023-06-26T03:11:19;15.90;99.90
37242;DHT22;23135;51.078;12.108;2023-06-26T03:13:45;15.90;99.90
37242;DHT22;23135;51.078;12.108;2023-06-26T03:16:10;15.90;99.90
37242;DHT22;23135;51.078;12.108;2023-06-26T03:18:36;15.90;99.90
37242;DHT22;23135;51.078;12.108;2023-06-26T03:21:01;15.90;99.90
37242;DHT22;23135;51.078;12.108;2023-06-26T03:23:27;15.90;99.90
37242;DHT22;23135;51.078;12.108;2023-06-26T03:25:53;16.00;99.90
37242;DHT22;23135;51.078;12.108;2023-06-26T03:28:19;16.00;99.90
37242;DHT22;23135;51.078;12.108;2023-06-26T03:30:44;16.00;99.90
37242;DHT22;23135;51.078;12.108;2023-06-26T03:33:10;16.00;99.90
37242;DHT22;23135;51.078;12.108;2023-06-26T03:35:36;16.00;99.90
37242;DHT22;23135;51.078;12.108;2023-06-26T03:38:04;16.00;99.90
37242;DHT22;23135;51.078;12.108;2023-06-26T03:40:29;16.00;99.90
37242;DHT22;23135;51.078;12.108;2023-06-26T03:42:55;16.00;99.90
37242;DHT22;23135;51.078;12.108;2023-06-26T03:45:20;16.20;99.90
37242;DHT22;23135;51.078;12.108;2023-06-26T03:47:46;16.30;99.90
37242;DHT22;23135;51.078;12.108;2023-06-26T03:50:18;16.40;99.90
37242;DHT22;23135;51.078;12.108;2023-06-26T03:52:44;16.40;99.90
37242;DHT22;23135;51.078;12.108;2023-06-26T03:55:10;16.50;99.90
37242;DHT22;23135;51.078;12.108;2023-06-26T03:57:35;16.50;99.90
37242;DHT22;23135;51.078;12.108;2023-06-26T04:00:01;16.60;99.90
37242;DHT22;23135;51.078;12.108;2023-06-26T04:02:30;16.60;99.90
37242;DHT22;23135;51.078;12.108;2023-06-26T04:04:56;16.60;99.90
37242;DHT22;23135;51.078;12.108;2023-06-26T04:07:22;16.70;99.90
37242;DHT22;23135;51.078;12.108;2023-06-26T04:09:47;16.70;99.90
37242;DHT22;23135;51.078;12.108;2023-06-26T04:12:13;16.80;99.90
37242;DHT22;23135;51.078;12.108;2023-06-26T04:14:38;16.80;99.90
37242;DHT22;23135;51.078;12.108;2023-06-26T04:17:04;16.80;99.90
37242;DHT22;23135;51.078;12.108;2023-06-26T04:19:30;16.90;99.90
37242;DHT22;23135;51.078;12.108;2023-06-26T04:21:56;16.90;99.90
37242;DHT22;23135;51.078;12.108;2023-06-26T04:24:21;17.00;99.90
37242;DHT22;23135;51.078;12.108;2023-06-26T04:26:47;17.00;99.90
37242;DHT22;23135;51.078;12.108;2023-06-26T04:29:13;17.00;99.90
37242;DHT22;23135;51.078;12.108;2023-06-26T04:31:39;17.10;99.90
37242;DHT22;23135;51.078;12.108;2023-06-26T04:34:04;17.10;99.90
37242;DHT22;23135;51.078;12.108;2023-06-26T04:36:30;17.10;99.90
37242;DHT22;23135;51.078;12.108;2023-06-26T04:38:57;17.20;99.90
37242;DHT22;23135;51.078;12.108;2023-06-26T04:41:23;17.30;99.90
37242;DHT22;23135;51.078;12.108;2023-06-26T04:43:48;17.40;99.90
37242;DHT22;23135;51.078;12.108;2023-06-26T04:46:14;17.40;99.90
37242;DHT22;23135;51.078;12.108;2023-06-26T04:48:39;17.40;99.90
37242;DHT22;23135;51.078;12.108;2023-06-26T04:51:05;17.50;99.90
37242;DHT22;23135;51.078;12.108;2023-06-26T04:53:30;17.60;99.90
37242;DHT22;23135;51.078;12.108;2023-06-26T04:55:56;17.70;99.90
37242;DHT22;23135;51.078;12.108;2023-06-26T04:58:21;17.80;99.90
37242;DHT22;23135;51.078;12.108;2023-06-26T05:00:47;18.00;99.90
37242;DHT22;23135;51.078;12.108;2023-06-26T05:03:14;18.00;99.90
37242;DHT22;23135;51.078;12.108;2023-06-26T05:05:40;18.10;99.90
37242;DHT22;23135;51.078;12.108;2023-06-26T05:08:22;18.30;99.90
37242;DHT22;23135;51.078;12.108;2023-06-26T05:10:48;18.40;99.90
37242;DHT22;23135;51.078;12.108;2023-06-26T05:13:14;18.50;99.90
37242;DHT22;23135;51.078;12.108;2023-06-26T05:15:43;18.70;99.90
37242;DHT22;23135;51.078;12.108;2023-06-26T05:18:09;18.70;99.90
37242;DHT22;23135;51.078;12.108;2023-06-26T05:20:35;18.90;99.90
37242;DHT22;23135;51.078;12.108;2023-06-26T05:23:02;19.00;99.90
37242;DHT22;23135;51.078;12.108;2023-06-26T05:25:29;19.00;99.90
37242;DHT22;23135;51.078;12.108;2023-06-26T05:27:59;19.10;99.90
37242;DHT22;23135;51.078;12.108;2023-06-26T05:30:25;19.20;99.90
37242;DHT22;23135;51.078;12.108;2023-06-26T05:32:52;19.30;99.90
37242;DHT22;23135;51.078;12.108;2023-06-26T05:35:20;19.40;99.90
37242;DHT22;23135;51.078;12.108;2023-06-26T05:37:48;19.50;99.90
37242;DHT22;23135;51.078;12.108;2023-06-26T05:40:15;19.70;99.90
37242;DHT22;23135;51.078;12.108;2023-06-26T05:42:41;19.90;99.90
37242;DHT22;23135;51.078;12.108;2023-06-26T05:45:07;20.00;99.90
37242;DHT22;23135;51.078;12.108;2023-06-26T05:47:33;20.10;99.90
37242;DHT22;23135;51.078;12.108;2023-06-26T05:49:59;20.30;99.90
37242;DHT22;23135;51.078;12.108;2023-06-26T05:52:25;20.60;99.90
37242;DHT22;23135;51.078;12.108;2023-06-26T05:54:51;20.90;99.90
37242;DHT22;23135;51.078;12.108;2023-06-26T05:57:17;21.20;99.90
37242;DHT22;23135;51.078;12.108;2023-06-26T05:59:43;21.50;99.90
37242;DHT22;23135;51.078;12.108;2023-06-26T06:02:09;21.70;99.90
37242;DHT22;23135;51.078;12.108;2023-06-26T06:04:34;21.90;99.90
37242;DHT22;23135;51.078;12.108;2023-06-26T06:07:00;22.10;99.90
37242;DHT22;23135;51.078;12.108;2023-06-26T06:09:26;22.20;99.90
37242;DHT22;23135;51.078;12.108;2023-06-26T06:11:51;22.50;99.90
37242;DHT22;23135;51.078;12.108;2023-06-26T06:14:17;22.70;99.90
37242;DHT22;23135;51.078;12.108;2023-06-26T06:16:42;22.80;99.90
37242;DHT22;23135;51.078;12.108;2023-06-26T06:19:08;22.90;99.90
37242;DHT22;23135;51.078;12.108;2023-06-26T06:21:36;23.10;99.90
37242;DHT22;23135;51.078;12.108;2023-06-26T06:24:02;23.30;99.90
37242;DHT22;23135;51.078;12.108;2023-06-26T06:26:28;23.50;99.90
37242;DHT22;23135;51.078;12.108;2023-06-26T06:28:54;23.70;99.90
37242;DHT22;23135;51.078;12.108;2023-06-26T06:31:19;23.80;99.90
37242;DHT22;23135;51.078;12.108;2023-06-26T06:33:45;24.00;99.90
37242;DHT22;23135;51.078;12.108;2023-06-26T06:36:10;24.20;99.90
37242;DHT22;23135;51.078;12.108;2023-06-26T06:38:36;24.20;99.90
37242;DHT22;23135;51.078;12.108;2023-06-26T06:41:02;24.40;99.90
37242;DHT22;23135;51.078;12.108;2023-06-26T06:43:27;24.70;99.90
37242;DHT22;23135;51.078;12.108;2023-06-26T06:45:53;24.70;99.90
37242;DHT22;23135;51.078;12.108;2023-06-26T06:48:18;24.80;99.90
37242;DHT22;23135;51.078;12.108;2023-06-26T06:50:44;24.90;99.90
37242;DHT22;23135;51.078;12.108;2023-06-26T06:53:09;25.00;99.90
37242;DHT22;23135;51.078;12.108;2023-06-26T06:55:35;25.20;99.90
37242;DHT22;23135;51.078;12.108;2023-06-26T06:58:01;25.40;99.90
37242;DHT22;23135;51.078;12.108;2023-06-26T07:00:26;25.50;99.90
37242;DHT22;23135;51.078;12.108;2023-06-26T07:02:53;25.70;99.90
37242;DHT22;23135;51.078;12.108;2023-06-26T07:05:18;25.70;99.90
37242;DHT22;23135;51.078;12.108;2023-06-26T07:07:44;25.80;99.90
37242;DHT22;23135;51.078;12.108;2023-06-26T07:10:11;25.90;99.90
37242;DHT22;23135;51.078;12.108;2023-06-26T07:12:37;26.10;99.90
37242;DHT22;23135;51.078;12.108;2023-06-26T07:15:04;26.30;99.90
37242;DHT22;23135;51.078;12.108;2023-06-26T07:17:34;26.50;99.90
37242;DHT22;23135;51.078;12.108;2023-06-26T07:20:01;26.40;99.10
37242;DHT22;23135;51.078;12.108;2023-06-26T07:22:27;26.40;99.90
37242;DHT22;23135;51.078;12.108;2023-06-26T07:24:52;26.60;99.80
37242;DHT22;23135;51.078;12.108;2023-06-26T07:27:20;26.70;99.50
37242;DHT22;23135;51.078;12.108;2023-06-26T07:29:46;26.80;98.60
37242;DHT22;23135;51.078;12.108;2023-06-26T07:32:11;26.90;98.70
37242;DHT22;23135;51.078;12.108;2023-06-26T07:34:37;27.00;99.20
37242;DHT22;23135;51.078;12.108;2023-06-26T07:37:03;27.10;98.60
37242;DHT22;23135;51.078;12.108;2023-06-26T07:39:29;27.20;97.70
37242;DHT22;23135;51.078;12.108;2023-06-26T07:41:54;27.20;97.30
37242;DHT22;23135;51.078;12.108;2023-06-26T07:44:20;27.40;97.90
37242;DHT22;23135;51.078;12.108;2023-06-26T07:46:45;27.50;97.90
37242;DHT22;23135;51.078;12.108;2023-06-26T07:49:11;27.80;97.20
37242;DHT22;23135;51.078;12.108;2023-06-26T07:51:37;27.90;96.90
37242;DHT22;23135;51.078;12.108;2023-06-26T07:54:02;28.00;97.10
37242;DHT22;23135;51.078;12.108;2023-06-26T07:56:28;28.20;98.10
37242;DHT22;23135;51.078;12.108;2023-06-26T07:58:54;28.70;96.70
37242;DHT22;23135;51.078;12.108;2023-06-26T08:01:19;28.70;95.70
37242;DHT22;23135;51.078;12.108;2023-06-26T08:03:45;28.90;96.60
37242;DHT22;23135;51.078;12.108;2023-06-26T08:06:10;29.10;95.50
37242;DHT22;23135;51.078;12.108;2023-06-26T08:08:36;29.20;96.00
37242;DHT22;23135;51.078;12.108;2023-06-26T08:11:02;29.20;94.00
37242;DHT22;23135;51.078;12.108;2023-06-26T08:13:27;29.30;94.90
37242;DHT22;23135;51.078;12.108;2023-06-26T08:15:53;29.40;94.60
37242;DHT22;23135;51.078;12.108;2023-06-26T08:18:19;29.60;93.10
37242;DHT22;23135;51.078;12.108;2023-06-26T08:20:44;29.60;94.00
37242;DHT22;23135;51.078;12.108;2023-06-26T08:23:10;29.70;92.60
37242;DHT22;23135;51.078;12.108;2023-06-26T08:25:35;29.60;93.00
37242;DHT22;23135;51.078;12.108;2023-06-26T08:28:01;29.70;92.80
37242;DHT22;23135;51.078;12.108;2023-06-26T08:30:27;29.70;93.60
37242;DHT22;23135;51.078;12.108;2023-06-26T08:32:57;30.00;92.90
37242;DHT22;23135;51.078;12.108;2023-06-26T08:35:22;30.40;93.40
37242;DHT22;23135;51.078;12.108;2023-06-26T08:37:48;30.60;91.90
37242;DHT22;23135;51.078;12.108;2023-06-26T08:40:17;30.80;91.70
37242;DHT22;23135;51.078;12.108;2023-06-26T08:42:43;30.90;91.20
37242;DHT22;23135;51.078;12.108;2023-06-26T08:45:09;30.80;90.50
37242;DHT22;23135;51.078;12.108;2023-06-26T08:47:35;30.80;90.40
37242;DHT22;23135;51.078;12.108;2023-06-26T08:50:12;31.10;89.60
37242;DHT22;23135;51.078;12.108;2023-06-26T08:52:45;31.00;89.10
37242;DHT22;23135;51.078;12.108;2023-06-26T08:55:15;31.10;87.90
37242;DHT22;23135;51.078;12.108;2023-06-26T08:57:41;31.00;89.80
37242;DHT22;23135;51.078;12.108;2023-06-26T09:00:07;31.20;90.70
37242;DHT22;23135;51.078;12.108;2023-06-26T09:02:35;31.30;86.90
37242;DHT22;23135;51.078;12.108;2023-06-26T09:05:02;31.10;85.20
37242;DHT22;23135;51.078;12.108;2023-06-26T09:07:28;31.00;85.20
37242;DHT22;23135;51.078;12.108;2023-06-26T09:09:54;31.30;82.00
37242;DHT22;23135;51.078;12.108;2023-06-26T09:12:20;31.10;82.00
37242;DHT22;23135;51.078;12.108;2023-06-26T09:14:48;31.20;83.20
37242;DHT22;23135;51.078;12.108;2023-06-26T09:17:14;31.30;82.10
37242;DHT22;23135;51.078;12.108;2023-06-26T09:19:39;31.40;79.70
37242;DHT22;23135;51.078;12.108;2023-06-26T09:22:11;31.30;81.30
37242;DHT22;23135;51.078;12.108;2023-06-26T09:24:37;31.20;80.90
37242;DHT22;23135;51.078;12.108;2023-06-26T09:27:04;31.30;80.70
37242;DHT22;23135;51.078;12.108;2023-06-26T09:29:29;31.20;83.40
37242;DHT22;23135;51.078;12.108;2023-06-26T09:31:56;31.30;80.80
37242;DHT22;23135;51.078;12.108;2023-06-26T09:34:22;31.40;76.90
37242;DHT22;23135;51.078;12.108;2023-06-26T09:36:55;31.40;78.50
37242;DHT22;23135;51.078;12.108;2023-06-26T09:39:21;31.80;78.30
37242;DHT22;23135;51.078;12.108;2023-06-26T09:41:46;31.90;75.90
37242;DHT22;23135;51.078;12.108;2023-06-26T09:44:14;32.00;77.10
37242;DHT22;23135;51.078;12.108;2023-06-26T09:46:39;32.30;79.10
37242;DHT22;23135;51.078;12.108;2023-06-26T09:49:06;32.40;76.70
37242;DHT22;23135;51.078;12.108;2023-06-26T09:51:35;32.20;75.50
37242;DHT22;23135;51.078;12.108;2023-06-26T09:54:02;32.30;77.90
37242;DHT22;23135;51.078;12.108;2023-06-26T09:56:28;32.20;75.00
37242;DHT22;23135;51.078;12.108;2023-06-26T09:58:58;32.00;74.40
37242;DHT22;23135;51.078;12.108;2023-06-26T10:01:25;32.40;75.30
37242;DHT22;23135;51.078;12.108;2023-06-26T10:03:51;32.50;74.70
37242;DHT22;23135;51.078;12.108;2023-06-26T10:06:27;32.30;75.10
37242;DHT22;23135;51.078;12.108;2023-06-26T10:08:54;32.00;74.40
37242;DHT22;23135;51.078;12.108;2023-06-26T10:11:21;31.90;72.60
37242;DHT22;23135;51.078;12.108;2023-06-26T10:13:50;31.70;70.80
37242;DHT22;23135;51.078;12.108;2023-06-26T10:16:24;31.80;72.90
37242;DHT22;23135;51.078;12.108;2023-06-26T10:18:53;32.00;74.10
37242;DHT22;23135;51.078;12.108;2023-06-26T10:21:22;32.20;73.10
37242;DHT22;23135;51.078;12.108;2023-06-26T10:23:49;32.20;70.90
37242;DHT22;23135;51.078;12.108;2023-06-26T10:26:16;32.10;71.60
37242;DHT22;23135;51.078;12.108;2023-06-26T10:28:44;32.10;70.60
37242;DHT22;23135;51.078;12.108;2023-06-26T10:31:11;32.40;71.50
37242;DHT22;23135;51.078;12.108;2023-06-26T10:33:38;32.50;71.90
37242;DHT22;23135;51.078;12.108;2023-06-26T10:36:14;32.50;72.60
37242;DHT22;23135;51.078;12.108;2023-06-26T10:39:04;32.60;73.30
37242;DHT22;23135;51.078;12.108;2023-06-26T10:41:37;32.40;70.60
37242;DHT22;23135;51.078;12.108;2023-06-26T10:44:15;32.40;70.30
37242;DHT22;23135;51.078;12.108;2023-06-26T10:47:08;32.50;72.00
37242;DHT22;23135;51.078;12.108;2023-06-26T10:49:36;32.70;73.30
37242;DHT22;23135;51.078;12.108;2023-06-26T10:52:02;32.70;72.60
37242;DHT22;23135;51.078;12.108;2023-06-26T10:54:34;32.90;75.20
37242;DHT22;23135;51.078;12.108;2023-06-26T10:57:07;33.10;71.30
37242;DHT22;23135;51.078;12.108;2023-06-26T10:59:33;33.20;73.30
37242;DHT22;23135;51.078;12.108;2023-06-26T11:02:00;33.80;71.70
37242;DHT22;23135;51.078;12.108;2023-06-26T11:04:46;33.70;71.70
37242;DHT22;23135;51.078;12.108;2023-06-26T11:07:18;33.90;70.50
37242;DHT22;23135;51.078;12.108;2023-06-26T11:12:45;33.90;71.00
37242;DHT22;23135;51.078;12.108;2023-06-26T11:15:18;33.80;70.80
37242;DHT22;23135;51.078;12.108;2023-06-26T11:17:44;34.10;71.30
37242;DHT22;23135;51.078;12.108;2023-06-26T11:20:12;34.20;71.70
37242;DHT22;23135;51.078;12.108;2023-06-26T11:22:39;33.80;71.70
37242;DHT22;23135;51.078;12.108;2023-06-26T11:25:06;33.60;71.70
37242;DHT22;23135;51.078;12.108;2023-06-26T11:27:38;33.30;69.70
37242;DHT22;23135;51.078;12.108;2023-06-26T11:30:09;33.50;69.70
37242;DHT22;23135;51.078;12.108;2023-06-26T11:32:36;33.80;74.80
37242;DHT22;23135;51.078;12.108;2023-06-26T11:35:01;34.00;72.20
37242;DHT22;23135;51.078;12.108;2023-06-26T11:37:27;34.10;70.40
37242;DHT22;23135;51.078;12.108;2023-06-26T11:39:53;34.10;70.70
37242;DHT22;23135;51.078;12.108;2023-06-26T11:42:20;34.10;68.90
37242;DHT22;23135;51.078;12.108;2023-06-26T11:44:46;34.10;69.60
37242;DHT22;23135;51.078;12.108;2023-06-26T11:47:16;34.60;69.90
37242;DHT22;23135;51.078;12.108;2023-06-26T11:49:46;34.80;69.30
37242;DHT22;23135;51.078;12.108;2023-06-26T11:52:12;34.90;70.10
37242;DHT22;23135;51.078;12.108;2023-06-26T11:54:37;35.10;68.20
37242;DHT22;23135;51.078;12.108;2023-06-26T11:57:04;34.60;68.00
37242;DHT22;23135;51.078;12.108;2023-06-26T11:59:39;34.70;67.00
37242;DHT22;23135;51.078;12.108;2023-06-26T12:02:12;34.90;67.30
37242;DHT22;23135;51.078;12.108;2023-06-26T12:04:42;34.30;66.50
37242;DHT22;23135;51.078;12.108;2023-06-26T12:07:09;33.90;68.20
37242;DHT22;23135;51.078;12.108;2023-06-26T12:09:45;34.00;67.00
37242;DHT22;23135;51.078;12.108;2023-06-26T12:12:12;34.10;68.70
37242;DHT22;23135;51.078;12.108;2023-06-26T12:14:39;34.20;67.70
37242;DHT22;23135;51.078;12.108;2023-06-26T12:17:09;34.10;66.60
37242;DHT22;23135;51.078;12.108;2023-06-26T12:19:43;33.60;69.20
37242;DHT22;23135;51.078;12.108;2023-06-26T12:22:09;33.40;67.10
37242;DHT22;23135;51.078;12.108;2023-06-26T12:24:37;33.50;67.90
37242;DHT22;23135;51.078;12.108;2023-06-26T12:27:11;33.90;68.80
37242;DHT22;23135;51.078;12.108;2023-06-26T12:29:38;33.60;66.80
37242;DHT22;23135;51.078;12.108;2023-06-26T12:32:08;34.00;68.80
37242;DHT22;23135;51.078;12.108;2023-06-26T12:34:37;34.50;70.50
37242;DHT22;23135;51.078;12.108;2023-06-26T12:37:05;34.40;68.60
37242;DHT22;23135;51.078;12.108;2023-06-26T12:42:19;34.20;69.40
37242;DHT22;23135;51.078;12.108;2023-06-26T12:44:45;33.90;66.10
37242;DHT22;23135;51.078;12.108;2023-06-26T12:47:10;34.00;67.90
37242;DHT22;23135;51.078;12.108;2023-06-26T12:49:40;34.30;66.00
37242;DHT22;23135;51.078;12.108;2023-06-26T12:52:07;34.20;67.90
37242;DHT22;23135;51.078;12.108;2023-06-26T12:54:38;34.50;67.00
37242;DHT22;23135;51.078;12.108;2023-06-26T12:57:04;34.30;66.50
37242;DHT22;23135;51.078;12.108;2023-06-26T12:59:31;33.80;68.20
37242;DHT22;23135;51.078;12.108;2023-06-26T13:01:57;33.50;68.00
37242;DHT22;23135;51.078;12.108;2023-06-26T13:04:23;33.60;65.50
37242;DHT22;23135;51.078;12.108;2023-06-26T13:06:49;33.70;65.90
37242;DHT22;23135;51.078;12.108;2023-06-26T13:09:15;34.00;66.20
37242;DHT22;23135;51.078;12.108;2023-06-26T13:11:41;33.90;68.10
37242;DHT22;23135;51.078;12.108;2023-06-26T13:14:06;34.00;67.00
37242;DHT22;23135;51.078;12.108;2023-06-26T13:16:32;34.20;67.50
37242;DHT22;23135;51.078;12.108;2023-06-26T13:18:59;34.00;69.30
37242;DHT22;23135;51.078;12.108;2023-06-26T13:21:25;33.80;67.90
37242;DHT22;23135;51.078;12.108;2023-06-26T13:23:51;33.80;67.70
37242;DHT22;23135;51.078;12.108;2023-06-26T13:26:16;34.00;69.20
37242;DHT22;23135;51.078;12.108;2023-06-26T13:28:42;34.30;68.50
37242;DHT22;23135;51.078;12.108;2023-06-26T13:31:07;34.50;67.50
37242;DHT22;23135;51.078;12.108;2023-06-26T13:33:33;34.30;65.80
37242;DHT22;23135;51.078;12.108;2023-06-26T13:35:58;34.20;67.50
37242;DHT22;23135;51.078;12.108;2023-06-26T13:38:24;34.20;66.70
37242;DHT22;23135;51.078;12.108;2023-06-26T13:40:52;34.10;64.90
37242;DHT22;23135;51.078;12.108;2023-06-26T13:43:17;34.20;66.20
37242;DHT22;23135;51.078;12.108;2023-06-26T13:45:43;34.40;67.70
37242;DHT22;23135;51.078;12.108;2023-06-26T13:48:08;34.30;66.00
37242;DHT22;23135;51.078;12.108;2023-06-26T13:50:34;34.00;65.20
37242;DHT22;23135;51.078;12.108;2023-06-26T13:52:59;34.10;65.10
37242;DHT22;23135;51.078;12.108;2023-06-26T13:55:25;34.10;66.80
37242;DHT22;23135;51.078;12.108;2023-06-26T13:57:51;33.90;69.10
37242;DHT22;23135;51.078;12.108;2023-06-26T14:00:17;33.90;66.00
37242;DHT22;23135;51.078;12.108;2023-06-26T14:02:46;33.20;66.10
37242;DHT22;23135;51.078;12.108;2023-06-26T14:05:12;32.60;67.60
37242;DHT22;23135;51.078;12.108;2023-06-26T14:07:37;32.20;67.70
37242;DHT22;23135;51.078;12.108;2023-06-26T14:10:04;31.60;68.20
37242;DHT22;23135;51.078;12.108;2023-06-26T14:12:31;31.10;70.10
37242;DHT22;23135;51.078;12.108;2023-06-26T14:14:57;30.00;76.40
37242;DHT22;23135;51.078;12.108;2023-06-26T14:17:22;28.30;87.40
37242;DHT22;23135;51.078;12.108;2023-06-26T14:19:49;26.80;92.10
37242;DHT22;23135;51.078;12.108;2023-06-26T14:22:15;26.10;95.00
37242;DHT22;23135;51.078;12.108;2023-06-26T14:24:40;25.70;97.50
37242;DHT22;23135;51.078;12.108;2023-06-26T14:27:06;25.60;98.80
37242;DHT22;23135;51.078;12.108;2023-06-26T14:29:31;25.40;99.80
37242;DHT22;23135;51.078;12.108;2023-06-26T14:31:57;25.50;99.90
37242;DHT22;23135;51.078;12.108;2023-06-26T14:34:23;25.50;99.90
37242;DHT22;23135;51.078;12.108;2023-06-26T14:36:48;25.70;99.90
37242;DHT22;23135;51.078;12.108;2023-06-26T14:39:14;26.00;99.90
37242;DHT22;23135;51.078;12.108;2023-06-26T14:41:39;26.60;99.90
37242;DHT22;23135;51.078;12.108;2023-06-26T14:44:05;27.30;99.90
37242;DHT22;23135;51.078;12.108;2023-06-26T14:46:33;27.70;99.30
37242;DHT22;23135;51.078;12.108;2023-06-26T14:48:59;27.80;99.40
37242;DHT22;23135;51.078;12.108;2023-06-26T14:51:24;27.50;99.10
37242;DHT22;23135;51.078;12.108;2023-06-26T14:53:51;27.40;99.30
37242;DHT22;23135;51.078;12.108;2023-06-26T14:56:16;27.40;99.30
37242;DHT22;23135;51.078;12.108;2023-06-26T14:58:42;27.50;99.20
37242;DHT22;23135;51.078;12.108;2023-06-26T15:01:08;27.60;99.40
37242;DHT22;23135;51.078;12.108;2023-06-26T15:03:34;27.80;99.40
37242;DHT22;23135;51.078;12.108;2023-06-26T15:05:59;28.10;99.50
37242;DHT22;23135;51.078;12.108;2023-06-26T15:08:25;28.00;99.10
37242;DHT22;23135;51.078;12.108;2023-06-26T15:10:50;28.00;99.50
37242;DHT22;23135;51.078;12.108;2023-06-26T15:13:16;28.00;99.40
37242;DHT22;23135;51.078;12.108;2023-06-26T15:15:42;27.60;96.80
37242;DHT22;23135;51.078;12.108;2023-06-26T15:18:07;27.20;96.60
37242;DHT22;23135;51.078;12.108;2023-06-26T15:20:33;27.10;96.10
37242;DHT22;23135;51.078;12.108;2023-06-26T15:22:59;26.90;96.50
37242;DHT22;23135;51.078;12.108;2023-06-26T15:25:24;27.00;96.20